sensor_id;sensor_type;location;lat;lon;timestamp;pressure;altitude;pressure_sealevel;temperature;humidity
57048;BME280;42934;54.294;18.598;2024-01-25T00:00:12;99268.72;;;5.22;100.00
57048;BME280;42934;54.294;18.598;2024-01-25T00:03:01;99272.16;;;5.23;100.00
57048;BME280;42934;54.294;18.598;2024-01-25T00:05:31;99274.00;;;5.19;100.00
57048;BME280;42934;54.294;18.598;2024-01-25T00:08:03;99254.03;;;5.20;100.00
57048;BME280;42934;54.294;18.598;2024-01-25T00:10:32;99282.72;;;5.18;100.00
57048;BME280;42934;54.294;18.598;2024-01-25T00:13:01;99277.72;;;5.12;100.00
57048;BME280;42934;54.294;18.598;2024-01-25T00:15:31;99280.13;;;5.18;100.00
57048;BME280;42934;54.294;18.598;2024-01-25T00:18:00;99276.38;;;5.27;100.00
57048;BME280;42934;54.294;18.598;2024-01-25T00:20:29;99297.22;;;5.26;100.00
57048;BME280;42934;54.294;18.598;2024-01-25T00:22:59;99302.63;;;5.19;100.00
57048;BME280;42934;54.294;18.598;2024-01-25T00:25:29;99294.78;;;5.21;100.00
57048;BME280;42934;54.294;18.598;2024-01-25T00:28:00;99294.09;;;5.16;100.00
57048;BME280;42934;54.294;18.598;2024-01-25T00:30:29;99312.41;;;5.13;100.00
57048;BME280;42934;54.294;18.598;2024-01-25T00:32:58;99313.97;;;5.18;100.00
57048;BME280;42934;54.294;18.598;2024-01-25T00:35:30;99301.16;;;5.12;100.00
57048;BME280;42934;54.294;18.598;2024-01-25T00:38:00;99321.75;;;5.18;100.00
57048;BME280;42934;54.294;18.598;2024-01-25T00:40:31;99320.09;;;5.16;100.00
57048;BME280;42934;54.294;18.598;2024-01-25T00:43:01;99314.69;;;5.22;100.00
57048;BME280;42934;54.294;18.598;2024-01-25T00:45:31;99301.94;;;5.14;100.00
57048;BME280;42934;54.294;18.598;2024-01-25T00:48:00;99313.22;;;5.15;100.00
57048;BME280;42934;54.294;18.598;2024-01-25T00:50:30;99301.94;;;5.14;100.00
57048;BME280;42934;54.294;18.598;2024-01-25T00:53:00;99316.78;;;5.11;100.00
57048;BME280;42934;54.294;18.598;2024-01-25T00:55:31;99307.09;;;5.16;100.00
57048;BME280;42934;54.294;18.598;2024-01-25T00:58:01;99311.34;;;5.18;100.00
57048;BME280;42934;54.294;18.598;2024-01-25T01:00:31;99316.56;;;5.18;100.00
57048;BME280;42934;54.294;18.598;2024-01-25T01:03:03;99318.50;;;5.12;100.00
57048;BME280;42934;54.294;18.598;2024-01-25T01:05:34;99317.69;;;5.10;100.00
57048;BME280;42934;54.294;18.598;2024-01-25T01:08:04;99328.00;;;5.13;100.00
57048;BME280;42934;54.294;18.598;2024-01-25T01:10:35;99327.25;;;5.09;100.00
57048;BME280;42934;54.294;18.598;2024-01-25T01:13:04;99331.53;;;5.12;100.00
57048;BME280;42934;54.294;18.598;2024-01-25T01:15:34;99332.38;;;5.12;100.00
57048;BME280;42934;54.294;18.598;2024-01-25T01:18:03;99331.69;;;5.06;100.00
57048;BME280;42934;54.294;18.598;2024-01-25T01:20:36;99333.25;;;5.11;100.00
57048;BME280;42934;54.294;18.598;2024-01-25T01:23:05;99343.63;;;5.13;100.00
57048;BME280;42934;54.294;18.598;2024-01-25T01:25:35;99341.97;;;5.10;100.00
57048;BME280;42934;54.294;18.598;2024-01-25T01:28:04;99352.66;;;5.01;100.00
57048;BME280;42934;54.294;18.598;2024-01-25T01:30:34;99334.28;;;5.06;100.00
57048;BME280;42934;54.294;18.598;2024-01-25T01:33:03;99333.44;;;5.05;100.00
57048;BME280;42934;54.294;18.598;2024-01-25T01:35:33;99330.94;;;5.02;100.00
57048;BME280;42934;54.294;18.598;2024-01-25T01:38:02;99340.31;;;5.08;100.00
57048;BME280;42934;54.294;18.598;2024-01-25T01:40:31;99350.81;;;5.05;100.00
57048;BME280;42934;54.294;18.598;2024-01-25T01:43:02;99349.03;;;5.07;100.00
57048;BME280;42934;54.294;18.598;2024-01-25T01:45:31;99344.78;;;5.03;100.00
57048;BME280;42934;54.294;18.598;2024-01-25T01:48:01;99333.34;;;5.08;100.00
57048;BME280;42934;54.294;18.598;2024-01-25T01:50:31;99349.03;;;5.07;100.00
57048;BME280;42934;54.294;18.598;2024-01-25T01:53:00;99338.66;;;5.05;99.89
57048;BME280;42934;54.294;18.598;2024-01-25T01:55:30;99353.59;;;4.98;99.89
57048;BME280;42934;54.294;18.598;2024-01-25T01:58:01;99350.91;;;5.01;99.52
57048;BME280;42934;54.294;18.598;2024-01-25T02:00:31;99348.19;;;5.06;99.66
57048;BME280;42934;54.294;18.598;2024-01-25T02:03:02;99350.91;;;5.01;99.05
57048;BME280;42934;54.294;18.598;2024-01-25T02:05:32;99338.03;;;4.97;100.00
57048;BME280;42934;54.294;18.598;2024-01-25T02:08:01;99347.41;;;5.03;100.00
57048;BME280;42934;54.294;18.598;2024-01-25T02:10:31;99348.31;;;5.01;99.47
57048;BME280;42934;54.294;18.598;2024-01-25T02:13:02;99357.91;;;4.99;99.50
57048;BME280;42934;54.294;18.598;2024-01-25T02:15:31;99339.78;;;4.96;99.00
57048;BME280;42934;54.294;18.598;2024-01-25T02:18:00;99348.38;;;5.00;99.19
57048;BME280;42934;54.294;18.598;2024-01-25T02:20:31;99337.09;;;4.99;99.21
57048;BME280;42934;54.294;18.598;2024-01-25T02:23:01;99349.16;;;5.02;99.02
57048;BME280;42934;54.294;18.598;2024-01-25T02:25:30;99361.38;;;5.00;98.71
57048;BME280;42934;54.294;18.598;2024-01-25T02:27:59;99352.88;;;4.93;99.05
57048;BME280;42934;54.294;18.598;2024-01-25T02:30:29;99357.16;;;4.96;98.81
57048;BME280;42934;54.294;18.598;2024-01-25T02:32:58;99352.03;;;4.93;98.71
57048;BME280;42934;54.294;18.598;2024-01-25T02:35:27;99345.94;;;4.94;98.50
57048;BME280;42934;54.294;18.598;2024-01-25T02:37:56;99365.19;;;4.88;98.42
57048;BME280;42934;54.294;18.598;2024-01-25T02:40:27;99366.78;;;4.92;98.93
57048;BME280;42934;54.294;18.598;2024-01-25T02:42:56;99378.00;;;4.94;99.19
57048;BME280;42934;54.294;18.598;2024-01-25T02:45:25;99377.41;;;4.85;99.23
57048;BME280;42934;54.294;18.598;2024-01-25T02:47:54;99373.88;;;4.87;99.03
57048;BME280;42934;54.294;18.598;2024-01-25T02:50:27;99377.47;;;4.83;98.26
57048;BME280;42934;54.294;18.598;2024-01-25T02:52:56;99373.78;;;4.90;98.39
57048;BME280;42934;54.294;18.598;2024-01-25T02:55:27;99380.81;;;4.88;98.60
57048;BME280;42934;54.294;18.598;2024-01-25T02:57:56;99380.63;;;4.94;98.40
57048;BME280;42934;54.294;18.598;2024-01-25T03:00:26;99373.78;;;4.90;98.87
57048;BME280;42934;54.294;18.598;2024-01-25T03:02:55;99388.59;;;4.88;98.68
57048;BME280;42934;54.294;18.598;2024-01-25T03:05:24;99382.31;;;4.95;98.65
57048;BME280;42934;54.294;18.598;2024-01-25T03:07:53;99396.31;;;4.91;98.90
57048;BME280;42934;54.294;18.598;2024-01-25T03:10:24;99386.78;;;4.90;98.34
57048;BME280;42934;54.294;18.598;2024-01-25T03:12:55;99386.00;;;4.88;98.86
57048;BME280;42934;54.294;18.598;2024-01-25T03:15:24;99393.63;;;4.94;98.66
57048;BME280;42934;54.294;18.598;2024-01-25T03:17:53;99402.41;;;4.90;99.09
57048;BME280;42934;54.294;18.598;2024-01-25T03:20:23;99402.31;;;4.93;98.15
57048;BME280;42934;54.294;18.598;2024-01-25T03:22:52;99414.34;;;4.97;98.32
57048;BME280;42934;54.294;18.598;2024-01-25T03:25:22;99422.16;;;4.97;98.59
57048;BME280;42934;54.294;18.598;2024-01-25T03:27:51;99425.72;;;4.93;98.68
57048;BME280;42934;54.294;18.598;2024-01-25T03:30:22;99419.72;;;4.91;98.76
57048;BME280;42934;54.294;18.598;2024-01-25T03:32:51;99432.00;;;4.86;98.93
57048;BME280;42934;54.294;18.598;2024-01-25T03:35:21;99435.41;;;4.88;99.03
57048;BME280;42934;54.294;18.598;2024-01-25T03:37:50;99437.06;;;4.91;98.47
57048;BME280;42934;54.294;18.598;2024-01-25T03:40:19;99442.44;;;4.85;98.82
57048;BME280;42934;54.294;18.598;2024-01-25T03:42:48;99449.28;;;4.89;99.00
57048;BME280;42934;54.294;18.598;2024-01-25T03:45:38;99451.88;;;4.89;99.15
57048;BME280;42934;54.294;18.598;2024-01-25T03:48:07;99451.59;;;4.98;99.26
57048;BME280;42934;54.294;18.598;2024-01-25T03:50:37;99456.00;;;4.96;98.43
57048;BME280;42934;54.294;18.598;2024-01-25T03:53:06;99459.34;;;4.99;98.62
57048;BME280;42934;54.294;18.598;2024-01-25T03:55:35;99460.38;;;4.94;99.35
57048;BME280;42934;54.294;18.598;2024-01-25T03:58:04;99457.84;;;4.91;98.60
57048;BME280;42934;54.294;18.598;2024-01-25T04:00:34;99458.75;;;4.91;99.66
57048;BME280;42934;54.294;18.598;2024-01-25T04:03:04;99462.13;;;4.93;99.35
57048;BME280;42934;54.294;18.598;2024-01-25T04:05:34;99461.53;;;4.84;99.82
57048;BME280;42934;54.294;18.598;2024-01-25T04:08:03;99459.44;;;4.96;99.70
57048;BME280;42934;54.294;18.598;2024-01-25T04:10:33;99464.97;;;4.86;99.29
57048;BME280;42934;54.294;18.598;2024-01-25T04:13:02;99470.88;;;4.91;99.66
57048;BME280;42934;54.294;18.598;2024-01-25T04:15:34;99477.09;;;4.85;99.57
57048;BME280;42934;54.294;18.598;2024-01-25T04:18:05;99469.06;;;4.94;99.36
57048;BME280;42934;54.294;18.598;2024-01-25T04:20:35;99470.06;;;4.89;99.99
57048;BME280;42934;54.294;18.598;2024-01-25T04:23:04;99480.56;;;4.86;99.91
57048;BME280;42934;54.294;18.598;2024-01-25T04:25:34;99484.84;;;4.88;100.00
57048;BME280;42934;54.294;18.598;2024-01-25T04:28:03;99483.84;;;4.92;100.00
57048;BME280;42934;54.294;18.598;2024-01-25T04:30:32;99483.78;;;4.94;100.00
57048;BME280;42934;54.294;18.598;2024-01-25T04:33:03;99488.91;;;4.97;100.00
57048;BME280;42934;54.294;18.598;2024-01-25T04:35:34;99507.09;;;4.97;100.00
57048;BME280;42934;54.294;18.598;2024-01-25T04:38:03;99502.06;;;4.92;100.00
57048;BME280;42934;54.294;18.598;2024-01-25T04:40:32;99508.16;;;4.91;100.00
57048;BME280;42934;54.294;18.598;2024-01-25T04:43:02;99520.84;;;5.02;100.00
57048;BME280;42934;54.294;18.598;2024-01-25T04:45:31;99522.84;;;4.92;100.00
57048;BME280;42934;54.294;18.598;2024-01-25T04:48:00;99563.63;;;4.92;100.00
57048;BME280;42934;54.294;18.598;2024-01-25T04:50:30;99536.53;;;4.99;100.00
57048;BME280;42934;54.294;18.598;2024-01-25T04:53:02;99537.63;;;4.92;99.42
57048;BME280;42934;54.294;18.598;2024-01-25T04:55:31;99548.63;;;5.01;99.68
57048;BME280;42934;54.294;18.598;2024-01-25T04:58:00;99556.41;;;5.01;100.00
57048;BME280;42934;54.294;18.598;2024-01-25T05:00:30;99542.66;;;4.98;99.73
57048;BME280;42934;54.294;18.598;2024-01-25T05:02:59;99556.59;;;4.95;98.90
57048;BME280;42934;54.294;18.598;2024-01-25T05:05:28;99553.22;;;4.92;99.44
57048;BME280;42934;54.294;18.598;2024-01-25T05:07:59;99552.22;;;4.97;99.43
57048;BME280;42934;54.294;18.598;2024-01-25T05:10:29;99566.22;;;4.92;98.85
57048;BME280;42934;54.294;18.598;2024-01-25T05:12:58;99563.88;;;4.83;98.57
57048;BME280;42934;54.294;18.598;2024-01-25T05:15:27;99573.41;;;4.82;99.33
57048;BME280;42934;54.294;18.598;2024-01-25T05:17:56;99578.34;;;4.93;98.77
57048;BME280;42934;54.294;18.598;2024-01-25T05:20:26;99587.88;;;4.92;98.88
57048;BME280;42934;54.294;18.598;2024-01-25T05:23:02;99589.63;;;4.92;98.99
57048;BME280;42934;54.294;18.598;2024-01-25T05:25:32;99587.28;;;4.83;99.24
57048;BME280;42934;54.294;18.598;2024-01-25T05:28:01;99604.34;;;4.93;99.36
57048;BME280;42934;54.294;18.598;2024-01-25T05:30:30;99597.38;;;4.93;99.21
57048;BME280;42934;54.294;18.598;2024-01-25T05:32:59;99602.75;;;4.87;99.46
57048;BME280;42934;54.294;18.598;2024-01-25T05:35:29;99608.63;;;4.95;98.78
57048;BME280;42934;54.294;18.598;2024-01-25T05:37:58;99607.00;;;4.91;99.00
57048;BME280;42934;54.294;18.598;2024-01-25T05:40:29;99612.22;;;4.90;99.48
57048;BME280;42934;54.294;18.598;2024-01-25T05:42:59;99621.78;;;4.89;99.96
57048;BME280;42934;54.294;18.598;2024-01-25T05:45:29;99621.66;;;4.94;99.01
57048;BME280;42934;54.294;18.598;2024-01-25T05:47:58;99618.16;;;4.95;99.31
57048;BME280;42934;54.294;18.598;2024-01-25T05:50:28;99626.56;;;5.05;99.20
57048;BME280;42934;54.294;18.598;2024-01-25T05:52:57;99638.84;;;4.99;99.22
57048;BME280;42934;54.294;18.598;2024-01-25T05:55:28;99631.97;;;4.97;99.60
57048;BME280;42934;54.294;18.598;2024-01-25T05:57:58;99633.94;;;4.89;99.63
57048;BME280;42934;54.294;18.598;2024-01-25T06:00:27;99632.09;;;4.92;100.00
57048;BME280;42934;54.294;18.598;2024-01-25T06:02:56;99638.16;;;4.93;100.00
57048;BME280;42934;54.294;18.598;2024-01-25T06:05:26;99646.78;;;4.95;100.00
57048;BME280;42934;54.294;18.598;2024-01-25T06:07:55;99653.06;;;4.86;100.00
57048;BME280;42934;54.294;18.598;2024-01-25T06:10:25;99662.63;;;4.86;100.00
57048;BME280;42934;54.294;18.598;2024-01-25T06:12:55;99670.28;;;4.92;100.00
57048;BME280;42934;54.294;18.598;2024-01-25T06:15:25;99681.59;;;4.89;100.00
57048;BME280;42934;54.294;18.598;2024-01-25T06:17:54;99672.09;;;4.88;100.00
57048;BME280;42934;54.294;18.598;2024-01-25T06:20:23;99688.41;;;4.95;100.00
57048;BME280;42934;54.294;18.598;2024-01-25T06:22:53;99681.47;;;4.94;100.00
57048;BME280;42934;54.294;18.598;2024-01-25T06:25:22;99682.28;;;4.96;100.00
57048;BME280;42934;54.294;18.598;2024-01-25T06:27:52;99693.38;;;5.04;100.00
57048;BME280;42934;54.294;18.598;2024-01-25T06:30:22;99699.47;;;5.03;100.00
57048;BME280;42934;54.294;18.598;2024-01-25T06:32:51;99695.22;;;4.99;100.00
57048;BME280;42934;54.294;18.598;2024-01-25T06:35:21;99703.97;;;4.96;100.00
57048;BME280;42934;54.294;18.598;2024-01-25T06:37:50;99703.88;;;4.99;100.00
57048;BME280;42934;54.294;18.598;2024-01-25T06:40:20;99709.25;;;4.93;100.00
57048;BME280;42934;54.294;18.598;2024-01-25T06:42:49;99722.06;;;5.01;100.00
57048;BME280;42934;54.294;18.598;2024-01-25T06:45:18;99730.56;;;5.08;100.00
57048;BME280;42934;54.294;18.598;2024-01-25T06:47:49;99734.06;;;5.07;100.00
57048;BME280;42934;54.294;18.598;2024-01-25T06:50:18;99753.06;;;5.09;100.00
57048;BME280;42934;54.294;18.598;2024-01-25T06:52:48;99759.19;;;5.08;100.00
57048;BME280;42934;54.294;18.598;2024-01-25T06:55:18;99775.72;;;5.05;100.00
57048;BME280;42934;54.294;18.598;2024-01-25T06:57:47;99786.03;;;5.10;100.00
57048;BME280;42934;54.294;18.598;2024-01-25T07:00:18;99794.63;;;5.13;100.00
57048;BME280;42934;54.294;18.598;2024-01-25T07:02:50;99799.75;;;5.16;100.00
57048;BME280;42934;54.294;18.598;2024-01-25T07:05:20;99801.72;;;5.07;100.00
57048;BME280;42934;54.294;18.598;2024-01-25T07:07:49;99814.66;;;5.10;100.00
57048;BME280;42934;54.294;18.598;2024-01-25T07:10:19;99821.38;;;5.18;100.00
57048;BME280;42934;54.294;18.598;2024-01-25T07:12:49;99833.78;;;5.07;100.00
57048;BME280;42934;54.294;18.598;2024-01-25T07:15:19;99840.00;;;5.01;100.00
57048;BME280;42934;54.294;18.598;2024-01-25T07:17:49;99849.53;;;5.01;100.00
57048;BME280;42934;54.294;18.598;2024-01-25T07:20:19;99854.50;;;5.12;100.00
57048;BME280;42934;54.294;18.598;2024-01-25T07:22:51;99863.25;;;5.09;100.00
57048;BME280;42934;54.294;18.598;2024-01-25T07:25:20;99875.38;;;5.09;100.00
57048;BME280;42934;54.294;18.598;2024-01-25T07:27:51;99881.31;;;5.15;100.00
57048;BME280;42934;54.294;18.598;2024-01-25T07:30:20;99892.44;;;5.20;100.00
57048;BME280;42934;54.294;18.598;2024-01-25T07:32:50;99900.94;;;5.30;100.00
57048;BME280;42934;54.294;18.598;2024-01-25T07:35:20;99906.28;;;5.24;100.00
57048;BME280;42934;54.294;18.598;2024-01-25T07:37:51;99924.72;;;5.13;100.00
57048;BME280;42934;54.294;18.598;2024-01-25T07:40:20;99933.44;;;5.12;100.00
57048;BME280;42934;54.294;18.598;2024-01-25T07:42:50;99937.88;;;5.06;99.60
57048;BME280;42934;54.294;18.598;2024-01-25T07:45:19;99942.28;;;5.04;99.95
57048;BME280;42934;54.294;18.598;2024-01-25T07:47:50;99938.78;;;5.05;98.81
57048;BME280;42934;54.294;18.598;2024-01-25T07:50:31;99948.53;;;4.95;98.34
57048;BME280;42934;54.294;18.598;2024-01-25T07:53:00;99959.88;;;4.92;97.80
57048;BME280;42934;54.294;18.598;2024-01-25T07:55:30;99973.72;;;4.93;98.36
57048;BME280;42934;54.294;18.598;2024-01-25T07:57:59;99981.59;;;4.90;98.10
57048;BME280;42934;54.294;18.598;2024-01-25T08:00:29;99988.53;;;4.89;97.36
57048;BME280;42934;54.294;18.598;2024-01-25T08:03:00;100000.88;;;4.80;96.85
57048;BME280;42934;54.294;18.598;2024-01-25T08:05:29;99999.22;;;4.75;96.76
57048;BME280;42934;54.294;18.598;2024-01-25T08:08:11;100006.28;;;4.67;96.75
57048;BME280;42934;54.294;18.598;2024-01-25T08:10:41;100016.81;;;4.63;96.30
57048;BME280;42934;54.294;18.598;2024-01-25T08:13:13;100025.31;;;4.71;95.88
57048;BME280;42934;54.294;18.598;2024-01-25T08:15:43;100029.97;;;4.52;95.33
57048;BME280;42934;54.294;18.598;2024-01-25T08:18:13;100037.75;;;4.53;95.87
57048;BME280;42934;54.294;18.598;2024-01-25T08:20:43;100060.50;;;4.42;95.30
57048;BME280;42934;54.294;18.598;2024-01-25T08:23:12;100057.03;;;4.40;95.68
57048;BME280;42934;54.294;18.598;2024-01-25T08:25:42;100071.66;;;4.47;95.50
57048;BME280;42934;54.294;18.598;2024-01-25T08:28:11;100079.59;;;4.38;94.82
57048;BME280;42934;54.294;18.598;2024-01-25T08:30:40;100096.06;;;4.39;95.26
57048;BME280;42934;54.294;18.598;2024-01-25T08:33:09;100101.38;;;4.31;94.84
57048;BME280;42934;54.294;18.598;2024-01-25T08:35:40;100109.97;;;4.36;94.73
57048;BME280;42934;54.294;18.598;2024-01-25T08:38:10;100109.34;;;4.20;94.60
57048;BME280;42934;54.294;18.598;2024-01-25T08:40:39;100117.31;;;4.09;93.59
57048;BME280;42934;54.294;18.598;2024-01-25T08:43:08;100126.06;;;4.04;93.73
57048;BME280;42934;54.294;18.598;2024-01-25T08:45:38;100139.22;;;3.92;93.79
57048;BME280;42934;54.294;18.598;2024-01-25T08:48:07;100140.06;;;3.91;94.25
57048;BME280;42934;54.294;18.598;2024-01-25T08:50:37;100152.22;;;3.90;94.24
57048;BME280;42934;54.294;18.598;2024-01-25T08:53:08;100151.22;;;3.99;93.87
57048;BME280;42934;54.294;18.598;2024-01-25T08:55:37;100156.59;;;3.86;93.70
57048;BME280;42934;54.294;18.598;2024-01-25T08:58:06;100171.41;;;3.80;93.31
57048;BME280;42934;54.294;18.598;2024-01-25T09:00:36;100164.59;;;3.71;92.69
57048;BME280;42934;54.294;18.598;2024-01-25T09:03:05;100182.84;;;3.65;92.92
57048;BME280;42934;54.294;18.598;2024-01-25T09:05:34;100187.91;;;3.74;92.80
57048;BME280;42934;54.294;18.598;2024-01-25T09:08:09;100195.63;;;3.79;92.57
57048;BME280;42934;54.294;18.598;2024-01-25T09:10:40;100207.88;;;3.68;92.16
57048;BME280;42934;54.294;18.598;2024-01-25T09:13:09;100208.88;;;3.57;92.03
57048;BME280;42934;54.294;18.598;2024-01-25T09:15:39;100207.06;;;3.64;92.05
57048;BME280;42934;54.294;18.598;2024-01-25T09:18:08;100214.78;;;3.72;91.76
57048;BME280;42934;54.294;18.598;2024-01-25T09:20:38;100218.25;;;3.71;91.60
57048;BME280;42934;54.294;18.598;2024-01-25T09:23:08;100222.53;;;3.75;91.69
57048;BME280;42934;54.294;18.598;2024-01-25T09:25:38;100217.41;;;3.67;91.33
57048;BME280;42934;54.294;18.598;2024-01-25T09:28:07;100227.84;;;3.64;90.77
57048;BME280;42934;54.294;18.598;2024-01-25T09:30:36;100240.00;;;3.62;90.40
57048;BME280;42934;54.294;18.598;2024-01-25T09:33:06;100233.09;;;3.59;89.99
57048;BME280;42934;54.294;18.598;2024-01-25T09:35:35;100240.00;;;3.60;89.98
57048;BME280;42934;54.294;18.598;2024-01-25T09:38:04;100240.84;;;3.61;90.28
57048;BME280;42934;54.294;18.598;2024-01-25T09:40:35;100247.78;;;3.60;90.41
57048;BME280;42934;54.294;18.598;2024-01-25T09:43:05;100234.88;;;3.53;90.50
57048;BME280;42934;54.294;18.598;2024-01-25T09:45:36;100241.75;;;3.57;90.36
57048;BME280;42934;54.294;18.598;2024-01-25T09:48:06;100245.22;;;3.59;89.70
57048;BME280;42934;54.294;18.598;2024-01-25T09:50:39;100245.13;;;3.67;90.87
57048;BME280;42934;54.294;18.598;2024-01-25T09:53:15;100247.63;;;3.73;91.17
57048;BME280;42934;54.294;18.598;2024-01-25T09:58:37;100257.09;;;3.80;90.15
57048;BME280;42934;54.294;18.598;2024-01-25T10:01:09;100255.19;;;3.94;90.41
57048;BME280;42934;54.294;18.598;2024-01-25T10:03:43;100267.22;;;4.01;90.36
57048;BME280;42934;54.294;18.598;2024-01-25T10:06:13;100266.41;;;3.96;89.53
57048;BME280;42934;54.294;18.598;2024-01-25T10:08:43;100272.34;;;4.09;89.63
57048;BME280;42934;54.294;18.598;2024-01-25T10:11:16;100267.13;;;4.10;88.43
57048;BME280;42934;54.294;18.598;2024-01-25T10:13:45;100286.19;;;4.09;88.44
57048;BME280;42934;54.294;18.598;2024-01-25T10:16:17;100297.41;;;4.13;87.84
57048;BME280;42934;54.294;18.598;2024-01-25T10:18:47;100299.03;;;4.20;87.22
57048;BME280;42934;54.294;18.598;2024-01-25T10:21:19;100301.69;;;4.14;86.30
57048;BME280;42934;54.294;18.598;2024-01-25T10:23:49;100305.81;;;4.32;85.50
57048;BME280;42934;54.294;18.598;2024-01-25T10:26:21;100310.97;;;4.37;85.70
57048;BME280;42934;54.294;18.598;2024-01-25T10:28:53;100328.28;;;4.38;85.18
57048;BME280;42934;54.294;18.598;2024-01-25T10:31:29;100329.00;;;4.49;84.12
57048;BME280;42934;54.294;18.598;2024-01-25T10:34:00;100328.88;;;4.58;84.23
57048;BME280;42934;54.294;18.598;2024-01-25T10:36:32;100318.72;;;4.41;82.58
57048;BME280;42934;54.294;18.598;2024-01-25T10:39:03;100330.81;;;4.42;83.13
57048;BME280;42934;54.294;18.598;2024-01-25T10:41:37;100329.81;;;4.54;83.05
57048;BME280;42934;54.294;18.598;2024-01-25T10:44:06;100332.41;;;4.54;81.82
57048;BME280;42934;54.294;18.598;2024-01-25T10:46:37;100335.00;;;4.54;81.35
57048;BME280;42934;54.294;18.598;2024-01-25T10:49:08;100341.84;;;4.61;80.77
57048;BME280;42934;54.294;18.598;2024-01-25T10:51:40;100353.72;;;4.79;81.70
57048;BME280;42934;54.294;18.598;2024-01-25T10:54:11;100361.47;;;4.84;81.46
57048;BME280;42934;54.294;18.598;2024-01-25T10:56:45;100357.88;;;4.92;81.25
57048;BME280;42934;54.294;18.598;2024-01-25T10:59:16;100350.13;;;4.89;80.47
57048;BME280;42934;54.294;18.598;2024-01-25T11:01:46;100369.16;;;4.94;79.51
57048;BME280;42934;54.294;18.598;2024-01-25T11:04:17;100363.00;;;4.98;80.10
57048;BME280;42934;54.294;18.598;2024-01-25T11:06:47;100380.53;;;4.86;79.49
57048;BME280;42934;54.294;18.598;2024-01-25T11:09:19;100381.31;;;4.92;79.75
57048;BME280;42934;54.294;18.598;2024-01-25T11:11:53;100384.59;;;5.07;79.60
57048;BME280;42934;54.294;18.598;2024-01-25T11:14:26;100386.88;;;5.81;76.03
57048;BME280;42934;54.294;18.598;2024-01-25T11:16:55;100399.19;;;5.71;76.74
57048;BME280;42934;54.294;18.598;2024-01-25T11:19:24;100392.78;;;5.38;77.20
57048;BME280;42934;54.294;18.598;2024-01-25T11:21:54;100398.13;;;5.29;77.89
57048;BME280;42934;54.294;18.598;2024-01-25T11:24:24;100408.63;;;5.24;78.06
57048;BME280;42934;54.294;18.598;2024-01-25T11:26:56;100408.13;;;4.97;77.28
57048;BME280;42934;54.294;18.598;2024-01-25T11:29:25;100422.81;;;5.01;78.40
57048;BME280;42934;54.294;18.598;2024-01-25T11:31:55;100420.13;;;5.08;78.88
57048;BME280;42934;54.294;18.598;2024-01-25T11:34:24;100428.94;;;4.97;78.78
57048;BME280;42934;54.294;18.598;2024-01-25T11:36:54;100429.81;;;4.98;78.77
57048;BME280;42934;54.294;18.598;2024-01-25T11:39:25;100428.88;;;5.04;79.60
57048;BME280;42934;54.294;18.598;2024-01-25T11:41:56;100443.72;;;4.95;79.56
57048;BME280;42934;54.294;18.598;2024-01-25T11:44:25;100443.78;;;4.89;78.59
57048;BME280;42934;54.294;18.598;2024-01-25T11:46:55;100455.97;;;4.84;78.87
57048;BME280;42934;54.294;18.598;2024-01-25T11:49:24;100450.94;;;4.72;78.41
57048;BME280;42934;54.294;18.598;2024-01-25T11:51:54;100448.47;;;4.58;77.72
57048;BME280;42934;54.294;18.598;2024-01-25T11:54:24;100459.81;;;4.54;77.42
57048;BME280;42934;54.294;18.598;2024-01-25T11:56:55;100457.28;;;4.46;77.04
57048;BME280;42934;54.294;18.598;2024-01-25T11:59:25;100452.94;;;4.48;78.17
57048;BME280;42934;54.294;18.598;2024-01-25T12:01:54;100460.97;;;4.27;77.88
57048;BME280;42934;54.294;18.598;2024-01-25T12:04:25;100466.06;;;4.36;78.38
57048;BME280;42934;54.294;18.598;2024-01-25T12:06:54;100466.91;;;4.38;79.00
57048;BME280;42934;54.294;18.598;2024-01-25T12:09:24;100476.31;;;4.51;79.37
57048;BME280;42934;54.294;18.598;2024-01-25T12:11:53;100477.97;;;4.55;79.62
57048;BME280;42934;54.294;18.598;2024-01-25T12:14:25;100487.44;;;4.61;79.58
57048;BME280;42934;54.294;18.598;2024-01-25T12:16:55;100492.03;;;4.38;79.34
57048;BME280;42934;54.294;18.598;2024-01-25T12:19:25;100494.81;;;4.21;79.83
57048;BME280;42934;54.294;18.598;2024-01-25T12:21:56;100505.16;;;4.27;79.67
57048;BME280;42934;54.294;18.598;2024-01-25T12:24:25;100515.47;;;4.36;80.05
57048;BME280;42934;54.294;18.598;2024-01-25T12:26:55;100507.69;;;4.33;79.92
57048;BME280;42934;54.294;18.598;2024-01-25T12:29:26;100524.09;;;4.35;80.05
57048;BME280;42934;54.294;18.598;2024-01-25T12:31:55;100520.78;;;4.24;80.36
57048;BME280;42934;54.294;18.598;2024-01-25T12:34:24;100516.50;;;4.18;80.50
57048;BME280;42934;54.294;18.598;2024-01-25T12:36:53;100533.66;;;4.35;80.31
57048;BME280;42934;54.294;18.598;2024-01-25T12:39:23;100533.91;;;4.05;79.58
57048;BME280;42934;54.294;18.598;2024-01-25T12:41:53;100546.06;;;4.02;79.63
57048;BME280;42934;54.294;18.598;2024-01-25T12:44:22;100557.22;;;4.18;80.01
57048;BME280;42934;54.294;18.598;2024-01-25T12:46:55;100559.00;;;4.08;80.56
57048;BME280;42934;54.294;18.598;2024-01-25T12:49:24;100558.13;;;4.12;80.63
57048;BME280;42934;54.294;18.598;2024-01-25T12:51:53;100561.63;;;4.06;79.81
57048;BME280;42934;54.294;18.598;2024-01-25T12:54:23;100565.13;;;3.99;79.43
57048;BME280;42934;54.294;18.598;2024-01-25T12:56:52;100568.59;;;3.98;79.69
57048;BME280;42934;54.294;18.598;2024-01-25T12:59:22;100572.00;;;4.08;79.65
57048;BME280;42934;54.294;18.598;2024-01-25T13:01:51;100573.75;;;4.04;79.61
57048;BME280;42934;54.294;18.598;2024-01-25T13:04:23;100577.25;;;3.99;79.54
57048;BME280;42934;54.294;18.598;2024-01-25T13:06:54;100594.59;;;3.95;79.79
57048;BME280;42934;54.294;18.598;2024-01-25T13:09:24;100591.13;;;3.96;80.45